sensor_id;sensor_type;location;lat;lon;timestamp;P1;durP1;ratioP1;P2;durP2;ratioP2
70140;SDS011;57508;43.086;0.136;2022-09-29T00:01:19;0.50;;;0.50;;
70140;SDS011;57508;43.086;0.136;2022-09-29T00:03:45;0.60;;;0.60;;
70140;SDS011;57508;43.086;0.136;2022-09-29T00:06:11;0.55;;;0.55;;
70140;SDS011;57508;43.086;0.136;2022-09-29T00:08:38;0.60;;;0.60;;
70140;SDS011;57508;43.086;0.136;2022-09-29T00:11:08;0.60;;;0.60;;
70140;SDS011;57508;43.086;0.136;2022-09-29T00:13:37;0.50;;;0.50;;
70140;SDS011;57508;43.086;0.136;2022-09-29T00:16:03;0.60;;;0.60;;
70140;SDS011;57508;43.086;0.136;2022-09-29T00:18:29;0.50;;;0.50;;
70140;SDS011;57508;43.086;0.136;2022-09-29T00:21:00;0.60;;;0.60;;
70140;SDS011;57508;43.086;0.136;2022-09-29T00:23:26;0.60;;;0.60;;
70140;SDS011;57508;43.086;0.136;2022-09-29T00:28:24;0.50;;;0.50;;
70140;SDS011;57508;43.086;0.136;2022-09-29T00:30:50;0.75;;;0.75;;
70140;SDS011;57508;43.086;0.136;2022-09-29T00:33:15;0.60;;;0.60;;
70140;SDS011;57508;43.086;0.136;2022-09-29T00:35:41;0.90;;;0.60;;
70140;SDS011;57508;43.086;0.136;2022-09-29T00:38:06;0.50;;;0.50;;
70140;SDS011;57508;43.086;0.136;2022-09-29T00:40:32;0.70;;;0.70;;
70140;SDS011;57508;43.086;0.136;2022-09-29T00:42:58;0.60;;;0.60;;
70140;SDS011;57508;43.086;0.136;2022-09-29T00:45:24;0.60;;;0.60;;
70140;SDS011;57508;43.086;0.136;2022-09-29T00:47:52;0.60;;;0.60;;
70140;SDS011;57508;43.086;0.136;2022-09-29T00:50:40;1.23;;;0.98;;
70140;SDS011;57508;43.086;0.136;2022-09-29T00:53:11;1.95;;;1.08;;
70140;SDS011;57508;43.086;0.136;2022-09-29T00:55:46;0.50;;;0.50;;
70140;SDS011;57508;43.086;0.136;2022-09-29T00:58:34;0.50;;;0.50;;
70140;SDS011;57508;43.086;0.136;2022-09-29T01:01:01;0.57;;;0.57;;
70140;SDS011;57508;43.086;0.136;2022-09-29T01:03:28;0.60;;;0.60;;
70140;SDS011;57508;43.086;0.136;2022-09-29T01:05:58;0.50;;;0.50;;
70140;SDS011;57508;43.086;0.136;2022-09-29T01:11:08;0.50;;;0.50;;
70140;SDS011;57508;43.086;0.136;2022-09-29T01:13:36;3.00;;;0.80;;
70140;SDS011;57508;43.086;0.136;2022-09-29T01:16:03;0.50;;;0.50;;
70140;SDS011;57508;43.086;0.136;2022-09-29T01:18:28;0.60;;;0.60;;
70140;SDS011;57508;43.086;0.136;2022-09-29T01:32:02;0.60;;;0.60;;
70140;SDS011;57508;43.086;0.136;2022-09-29T01:37:20;0.50;;;0.50;;
70140;SDS011;57508;43.086;0.136;2022-09-29T01:40:08;0.50;;;0.50;;
70140;SDS011;57508;43.086;0.136;2022-09-29T01:42:44;0.60;;;0.60;;
70140;SDS011;57508;43.086;0.136;2022-09-29T01:47:44;0.50;;;0.50;;
70140;SDS011;57508;43.086;0.136;2022-09-29T01:50:23;0.60;;;0.60;;
70140;SDS011;57508;43.086;0.136;2022-09-29T01:52:55;0.77;;;0.70;;
70140;SDS011;57508;43.086;0.136;2022-09-29T01:55:26;1.08;;;0.98;;
70140;SDS011;57508;43.086;0.136;2022-09-29T02:00:30;0.70;;;0.70;;
70140;SDS011;57508;43.086;0.136;2022-09-29T02:03:43;1.40;;;0.70;;
70140;SDS011;57508;43.086;0.136;2022-09-29T02:05:56;1.52;;;0.63;;
70140;SDS011;57508;43.086;0.136;2022-09-29T02:08:29;0.60;;;0.60;;
70140;SDS011;57508;43.086;0.136;2022-09-29T02:13:28;0.80;;;0.80;;
70140;SDS011;57508;43.086;0.136;2022-09-29T02:15:55;7.20;;;1.10;;
70140;SDS011;57508;43.086;0.136;2022-09-29T02:18:24;0.60;;;0.60;;
70140;SDS011;57508;43.086;0.136;2022-09-29T02:20:54;0.50;;;0.50;;
70140;SDS011;57508;43.086;0.136;2022-09-29T02:23:19;0.60;;;0.60;;
70140;SDS011;57508;43.086;0.136;2022-09-29T02:25:45;0.60;;;0.60;;
70140;SDS011;57508;43.086;0.136;2022-09-29T02:28:12;0.70;;;0.70;;
70140;SDS011;57508;43.086;0.136;2022-09-29T02:30:39;0.88;;;0.85;;
70140;SDS011;57508;43.086;0.136;2022-09-29T02:33:04;0.60;;;0.60;;
70140;SDS011;57508;43.086;0.136;2022-09-29T02:35:41;0.60;;;0.60;;
70140;SDS011;57508;43.086;0.136;2022-09-29T02:38:19;0.70;;;0.70;;
70140;SDS011;57508;43.086;0.136;2022-09-29T02:41:03;0.60;;;0.60;;
70140;SDS011;57508;43.086;0.136;2022-09-29T02:43:55;0.70;;;0.70;;
70140;SDS011;57508;43.086;0.136;2022-09-29T02:58:24;0.68;;;0.68;;
70140;SDS011;57508;43.086;0.136;2022-09-29T03:00:56;1.10;;;1.00;;
70140;SDS011;57508;43.086;0.136;2022-09-29T03:03:22;0.60;;;0.60;;
70140;SDS011;57508;43.086;0.136;2022-09-29T03:05:48;0.60;;;0.60;;
70140;SDS011;57508;43.086;0.136;2022-09-29T03:08:13;0.60;;;0.60;;
70140;SDS011;57508;43.086;0.136;2022-09-29T03:10:39;0.60;;;0.60;;
70140;SDS011;57508;43.086;0.136;2022-09-29T03:13:04;0.60;;;0.60;;
70140;SDS011;57508;43.086;0.136;2022-09-29T03:15:29;1.48;;;0.60;;
70140;SDS011;57508;43.086;0.136;2022-09-29T03:17:55;0.65;;;0.65;;
70140;SDS011;57508;43.086;0.136;2022-09-29T03:20:21;0.52;;;0.52;;
70140;SDS011;57508;43.086;0.136;2022-09-29T03:22:46;0.50;;;0.50;;
70140;SDS011;57508;43.086;0.136;2022-09-29T03:25:12;0.60;;;0.60;;
70140;SDS011;57508;43.086;0.136;2022-09-29T03:27:38;0.70;;;0.70;;
70140;SDS011;57508;43.086;0.136;2022-09-29T03:30:04;0.60;;;0.60;;
70140;SDS011;57508;43.086;0.136;2022-09-29T03:32:30;0.63;;;0.63;;
70140;SDS011;57508;43.086;0.136;2022-09-29T03:34:55;0.60;;;0.60;;
70140;SDS011;57508;43.086;0.136;2022-09-29T03:37:20;0.60;;;0.60;;
70140;SDS011;57508;43.086;0.136;2022-09-29T03:39:46;1.13;;;1.02;;
70140;SDS011;57508;43.086;0.136;2022-09-29T03:42:11;0.60;;;0.60;;
70140;SDS011;57508;43.086;0.136;2022-09-29T03:44:36;0.50;;;0.50;;
70140;SDS011;57508;43.086;0.136;2022-09-29T03:47:02;0.60;;;0.60;;
70140;SDS011;57508;43.086;0.136;2022-09-29T03:49:27;0.60;;;0.60;;
70140;SDS011;57508;43.086;0.136;2022-09-29T03:51:53;0.60;;;0.60;;
70140;SDS011;57508;43.086;0.136;2022-09-29T03:54:18;1.02;;;0.80;;
70140;SDS011;57508;43.086;0.136;2022-09-29T03:56:44;0.68;;;0.68;;
70140;SDS011;57508;43.086;0.136;2022-09-29T03:59:09;0.60;;;0.60;;
70140;SDS011;57508;43.086;0.136;2022-09-29T04:01:36;0.60;;;0.60;;
70140;SDS011;57508;43.086;0.136;2022-09-29T04:04:02;0.60;;;0.60;;
70140;SDS011;57508;43.086;0.136;2022-09-29T04:06:28;0.52;;;0.52;;
70140;SDS011;57508;43.086;0.136;2022-09-29T04:08:54;0.60;;;0.60;;
70140;SDS011;57508;43.086;0.136;2022-09-29T04:11:19;0.60;;;0.60;;
70140;SDS011;57508;43.086;0.136;2022-09-29T04:13:45;0.50;;;0.50;;
70140;SDS011;57508;43.086;0.136;2022-09-29T04:16:10;0.50;;;0.50;;
70140;SDS011;57508;43.086;0.136;2022-09-29T04:18:35;0.60;;;0.60;;
70140;SDS011;57508;43.086;0.136;2022-09-29T04:21:07;0.60;;;0.60;;
70140;SDS011;57508;43.086;0.136;2022-09-29T04:23:33;0.60;;;0.60;;
70140;SDS011;57508;43.086;0.136;2022-09-29T04:25:59;0.50;;;0.50;;
70140;SDS011;57508;43.086;0.136;2022-09-29T04:28:26;0.60;;;0.60;;
70140;SDS011;57508;43.086;0.136;2022-09-29T04:30:52;0.60;;;0.60;;
70140;SDS011;57508;43.086;0.136;2022-09-29T04:33:18;0.60;;;0.60;;
70140;SDS011;57508;43.086;0.136;2022-09-29T04:35:43;0.60;;;0.60;;
70140;SDS011;57508;43.086;0.136;2022-09-29T04:38:09;0.60;;;0.60;;
70140;SDS011;57508;43.086;0.136;2022-09-29T04:40:34;0.60;;;0.60;;
70140;SDS011;57508;43.086;0.136;2022-09-29T04:43:01;0.60;;;0.60;;
70140;SDS011;57508;43.086;0.136;2022-09-29T04:45:26;0.60;;;0.60;;
70140;SDS011;57508;43.086;0.136;2022-09-29T04:47:52;0.60;;;0.60;;
70140;SDS011;57508;43.086;0.136;2022-09-29T04:50:18;0.60;;;0.60;;
70140;SDS011;57508;43.086;0.136;2022-09-29T04:52:43;0.70;;;0.70;;
70140;SDS011;57508;43.086;0.136;2022-09-29T04:55:10;0.60;;;0.60;;
70140;SDS011;57508;43.086;0.136;2022-09-29T04:57:40;0.60;;;0.60;;
70140;SDS011;57508;43.086;0.136;2022-09-29T05:00:11;0.60;;;0.60;;
70140;SDS011;57508;43.086;0.136;2022-09-29T05:02:37;0.70;;;0.70;;
70140;SDS011;57508;43.086;0.136;2022-09-29T05:05:02;0.60;;;0.60;;
70140;SDS011;57508;43.086;0.136;2022-09-29T05:07:30;0.65;;;0.65;;
70140;SDS011;57508;43.086;0.136;2022-09-29T05:09:58;0.50;;;0.50;;
70140;SDS011;57508;43.086;0.136;2022-09-29T05:12:23;0.60;;;0.60;;
70140;SDS011;57508;43.086;0.136;2022-09-29T05:14:49;0.73;;;0.73;;
70140;SDS011;57508;43.086;0.136;2022-09-29T05:17:14;0.60;;;0.60;;
70140;SDS011;57508;43.086;0.136;2022-09-29T05:19:40;0.60;;;0.60;;
70140;SDS011;57508;43.086;0.136;2022-09-29T05:22:05;0.70;;;0.70;;
70140;SDS011;57508;43.086;0.136;2022-09-29T05:24:30;0.60;;;0.60;;
70140;SDS011;57508;43.086;0.136;2022-09-29T05:26:56;0.70;;;0.70;;
70140;SDS011;57508;43.086;0.136;2022-09-29T05:29:21;0.70;;;0.70;;
70140;SDS011;57508;43.086;0.136;2022-09-29T05:31:47;0.60;;;0.60;;
70140;SDS011;57508;43.086;0.136;2022-09-29T05:34:13;0.70;;;0.70;;
70140;SDS011;57508;43.086;0.136;2022-09-29T05:36:38;0.82;;;0.82;;
70140;SDS011;57508;43.086;0.136;2022-09-29T05:39:04;0.70;;;0.70;;
70140;SDS011;57508;43.086;0.136;2022-09-29T05:41:29;0.60;;;0.60;;
70140;SDS011;57508;43.086;0.136;2022-09-29T05:43:55;0.70;;;0.70;;
70140;SDS011;57508;43.086;0.136;2022-09-29T05:46:20;0.50;;;0.50;;
70140;SDS011;57508;43.086;0.136;2022-09-29T05:48:47;0.70;;;0.70;;
70140;SDS011;57508;43.086;0.136;2022-09-29T05:51:16;0.70;;;0.70;;
70140;SDS011;57508;43.086;0.136;2022-09-29T05:53:44;0.63;;;0.63;;
70140;SDS011;57508;43.086;0.136;2022-09-29T05:56:10;0.70;;;0.70;;
70140;SDS011;57508;43.086;0.136;2022-09-29T05:58:39;0.60;;;0.60;;
70140;SDS011;57508;43.086;0.136;2022-09-29T06:01:08;0.60;;;0.60;;
70140;SDS011;57508;43.086;0.136;2022-09-29T06:03:42;0.60;;;0.60;;
70140;SDS011;57508;43.086;0.136;2022-09-29T06:06:28;0.60;;;0.60;;
70140;SDS011;57508;43.086;0.136;2022-09-29T06:08:53;0.65;;;0.65;;
70140;SDS011;57508;43.086;0.136;2022-09-29T06:11:21;0.95;;;0.70;;
70140;SDS011;57508;43.086;0.136;2022-09-29T06:13:49;0.60;;;0.60;;
70140;SDS011;57508;43.086;0.136;2022-09-29T06:16:16;0.60;;;0.60;;
70140;SDS011;57508;43.086;0.136;2022-09-29T06:18:44;1.92;;;1.25;;
70140;SDS011;57508;43.086;0.136;2022-09-29T06:21:14;0.60;;;0.60;;
70140;SDS011;57508;43.086;0.136;2022-09-29T06:23:42;0.70;;;0.70;;
70140;SDS011;57508;43.086;0.136;2022-09-29T06:26:09;0.65;;;0.65;;
70140;SDS011;57508;43.086;0.136;2022-09-29T06:28:36;0.68;;;0.68;;
70140;SDS011;57508;43.086;0.136;2022-09-29T06:31:05;0.60;;;0.60;;
70140;SDS011;57508;43.086;0.136;2022-09-29T06:33:35;0.70;;;0.70;;
70140;SDS011;57508;43.086;0.136;2022-09-29T06:36:07;0.60;;;0.60;;
70140;SDS011;57508;43.086;0.136;2022-09-29T06:38:58;0.70;;;0.70;;
70140;SDS011;57508;43.086;0.136;2022-09-29T06:41:24;0.60;;;0.60;;
70140;SDS011;57508;43.086;0.136;2022-09-29T06:43:51;0.50;;;0.50;;
70140;SDS011;57508;43.086;0.136;2022-09-29T06:46:16;0.70;;;0.70;;
70140;SDS011;57508;43.086;0.136;2022-09-29T06:48:42;0.60;;;0.60;;
70140;SDS011;57508;43.086;0.136;2022-09-29T06:51:09;0.60;;;0.60;;
70140;SDS011;57508;43.086;0.136;2022-09-29T06:53:34;0.60;;;0.60;;
70140;SDS011;57508;43.086;0.136;2022-09-29T06:56:00;0.60;;;0.60;;
70140;SDS011;57508;43.086;0.136;2022-09-29T06:58:26;0.60;;;0.60;;
70140;SDS011;57508;43.086;0.136;2022-09-29T07:00:52;0.60;;;0.60;;
70140;SDS011;57508;43.086;0.136;2022-09-29T07:03:18;0.60;;;0.60;;
70140;SDS011;57508;43.086;0.136;2022-09-29T07:05:43;0.60;;;0.60;;
70140;SDS011;57508;43.086;0.136;2022-09-29T07:08:09;0.50;;;0.50;;
70140;SDS011;57508;43.086;0.136;2022-09-29T07:10:35;0.50;;;0.50;;
70140;SDS011;57508;43.086;0.136;2022-09-29T07:13:00;0.60;;;0.60;;
70140;SDS011;57508;43.086;0.136;2022-09-29T07:15:25;0.50;;;0.50;;
70140;SDS011;57508;43.086;0.136;2022-09-29T07:18:00;0.60;;;0.60;;
70140;SDS011;57508;43.086;0.136;2022-09-29T07:20:26;0.80;;;0.80;;
70140;SDS011;57508;43.086;0.136;2022-09-29T07:22:53;0.60;;;0.60;;
70140;SDS011;57508;43.086;0.136;2022-09-29T07:25:19;0.60;;;0.60;;
70140;SDS011;57508;43.086;0.136;2022-09-29T07:27:46;0.70;;;0.70;;
70140;SDS011;57508;43.086;0.136;2022-09-29T07:30:12;0.60;;;0.60;;
70140;SDS011;57508;43.086;0.136;2022-09-29T07:32:38;0.70;;;0.70;;
70140;SDS011;57508;43.086;0.136;2022-09-29T07:35:04;0.60;;;0.60;;
70140;SDS011;57508;43.086;0.136;2022-09-29T07:37:31;0.60;;;0.60;;
70140;SDS011;57508;43.086;0.136;2022-09-29T07:39:56;0.60;;;0.60;;
70140;SDS011;57508;43.086;0.136;2022-09-29T07:42:22;0.70;;;0.70;;
70140;SDS011;57508;43.086;0.136;2022-09-29T07:44:47;0.70;;;0.70;;
70140;SDS011;57508;43.086;0.136;2022-09-29T07:47:13;0.77;;;0.68;;
70140;SDS011;57508;43.086;0.136;2022-09-29T07:49:39;0.68;;;0.68;;
70140;SDS011;57508;43.086;0.136;2022-09-29T07:52:05;1.17;;;0.90;;
70140;SDS011;57508;43.086;0.136;2022-09-29T07:54:30;0.60;;;0.60;;
70140;SDS011;57508;43.086;0.136;2022-09-29T07:56:56;0.68;;;0.68;;
70140;SDS011;57508;43.086;0.136;2022-09-29T07:59:24;0.60;;;0.60;;
70140;SDS011;57508;43.086;0.136;2022-09-29T08:01:52;0.60;;;0.60;;
70140;SDS011;57508;43.086;0.136;2022-09-29T08:04:18;0.70;;;0.70;;
70140;SDS011;57508;43.086;0.136;2022-09-29T08:06:44;0.70;;;0.70;;
70140;SDS011;57508;43.086;0.136;2022-09-29T08:09:10;0.60;;;0.60;;
70140;SDS011;57508;43.086;0.136;2022-09-29T08:11:36;1.45;;;0.90;;
70140;SDS011;57508;43.086;0.136;2022-09-29T08:14:03;0.60;;;0.60;;
70140;SDS011;57508;43.086;0.136;2022-09-29T08:16:29;0.60;;;0.60;;
70140;SDS011;57508;43.086;0.136;2022-09-29T08:18:54;0.60;;;0.60;;
70140;SDS011;57508;43.086;0.136;2022-09-29T08:21:20;0.63;;;0.63;;
70140;SDS011;57508;43.086;0.136;2022-09-29T08:23:46;0.50;;;0.50;;
70140;SDS011;57508;43.086;0.136;2022-09-29T08:26:13;0.50;;;0.50;;
70140;SDS011;57508;43.086;0.136;2022-09-29T08:28:40;0.40;;;0.40;;
70140;SDS011;57508;43.086;0.136;2022-09-29T08:31:07;0.60;;;0.60;;
70140;SDS011;57508;43.086;0.136;2022-09-29T08:33:35;1.27;;;0.60;;
70140;SDS011;57508;43.086;0.136;2022-09-29T08:36:01;0.40;;;0.40;;
70140;SDS011;57508;43.086;0.136;2022-09-29T08:38:38;0.40;;;0.40;;
70140;SDS011;57508;43.086;0.136;2022-09-29T08:44:10;0.40;;;0.40;;
70140;SDS011;57508;43.086;0.136;2022-09-29T08:47:20;0.40;;;0.40;;
70140;SDS011;57508;43.086;0.136;2022-09-29T08:49:39;0.50;;;0.50;;
70140;SDS011;57508;43.086;0.136;2022-09-29T08:52:19;1.00;;;1.00;;
70140;SDS011;57508;43.086;0.136;2022-09-29T08:54:52;0.40;;;0.40;;
70140;SDS011;57508;43.086;0.136;2022-09-29T08:57:23;0.40;;;0.40;;
70140;SDS011;57508;43.086;0.136;2022-09-29T08:59:53;0.50;;;0.50;;
70140;SDS011;57508;43.086;0.136;2022-09-29T09:13:04;0.40;;;0.40;;
70140;SDS011;57508;43.086;0.136;2022-09-29T09:18:35;0.40;;;0.40;;
70140;SDS011;57508;43.086;0.136;2022-09-29T09:21:09;0.50;;;0.50;;
70140;SDS011;57508;43.086;0.136;2022-09-29T09:26:55;0.40;;;0.40;;
70140;SDS011;57508;43.086;0.136;2022-09-29T09:32:15;0.45;;;0.45;;
70140;SDS011;57508;43.086;0.136;2022-09-29T09:34:53;0.45;;;0.45;;
70140;SDS011;57508;43.086;0.136;2022-09-29T09:37:43;0.40;;;0.40;;
70140;SDS011;57508;43.086;0.136;2022-09-29T09:42:40;0.40;;;0.40;;
70140;SDS011;57508;43.086;0.136;2022-09-29T09:45:18;0.40;;;0.40;;
70140;SDS011;57508;43.086;0.136;2022-09-29T09:47:58;0.40;;;0.40;;
70140;SDS011;57508;43.086;0.136;2022-09-29T09:50:31;0.40;;;0.40;;
70140;SDS011;57508;43.086;0.136;2022-09-29T09:52:58;0.40;;;0.40;;
70140;SDS011;57508;43.086;0.136;2022-09-29T09:55:29;0.40;;;0.40;;
70140;SDS011;57508;43.086;0.136;2022-09-29T10:00:36;0.50;;;0.50;;
70140;SDS011;57508;43.086;0.136;2022-09-29T10:03:06;0.40;;;0.40;;
70140;SDS011;57508;43.086;0.136;2022-09-29T10:05:34;1.05;;;0.95;;
70140;SDS011;57508;43.086;0.136;2022-09-29T10:08:05;0.50;;;0.50;;
70140;SDS011;57508;43.086;0.136;2022-09-29T10:10:35;0.40;;;0.40;;
70140;SDS011;57508;43.086;0.136;2022-09-29T10:13:10;0.40;;;0.40;;
70140;SDS011;57508;43.086;0.136;2022-09-29T10:18:36;0.40;;;0.40;;
70140;SDS011;57508;43.086;0.136;2022-09-29T10:21:21;0.30;;;0.30;;
70140;SDS011;57508;43.086;0.136;2022-09-29T10:23:51;0.40;;;0.40;;
70140;SDS011;57508;43.086;0.136;2022-09-29T10:26:20;0.40;;;0.40;;
70140;SDS011;57508;43.086;0.136;2022-09-29T10:31:27;1.10;;;0.65;;
70140;SDS011;57508;43.086;0.136;2022-09-29T10:33:58;0.40;;;0.40;;
70140;SDS011;57508;43.086;0.136;2022-09-29T10:36:31;0.30;;;0.30;;
70140;SDS011;57508;43.086;0.136;2022-09-29T10:44:41;0.30;;;0.30;;
70140;SDS011;57508;43.086;0.136;2022-09-29T10:47:13;0.75;;;0.43;;
70140;SDS011;57508;43.086;0.136;2022-09-29T10:49:39;0.30;;;0.30;;
70140;SDS011;57508;43.086;0.136;2022-09-29T10:52:05;0.30;;;0.30;;
70140;SDS011;57508;43.086;0.136;2022-09-29T10:54:58;0.30;;;0.30;;
70140;SDS011;57508;43.086;0.136;2022-09-29T10:57:25;0.30;;;0.30;;
70140;SDS011;57508;43.086;0.136;2022-09-29T10:59:53;0.30;;;0.30;;
70140;SDS011;57508;43.086;0.136;2022-09-29T11:02:30;0.30;;;0.30;;
70140;SDS011;57508;43.086;0.136;2022-09-29T11:05:00;0.38;;;0.38;;
70140;SDS011;57508;43.086;0.136;2022-09-29T11:07:29;0.30;;;0.30;;
70140;SDS011;57508;43.086;0.136;2022-09-29T11:09:56;0.65;;;0.30;;
70140;SDS011;57508;43.086;0.136;2022-09-29T11:12:35;0.30;;;0.30;;
70140;SDS011;57508;43.086;0.136;2022-09-29T11:17:50;0.30;;;0.30;;
70140;SDS011;57508;43.086;0.136;2022-09-29T11:20:16;0.22;;;0.22;;
70140;SDS011;57508;43.086;0.136;2022-09-29T11:22:48;0.20;;;0.20;;
70140;SDS011;57508;43.086;0.136;2022-09-29T11:36:37;0.20;;;0.20;;
70140;SDS011;57508;43.086;0.136;2022-09-29T11:39:35;0.20;;;0.20;;
70140;SDS011;57508;43.086;0.136;2022-09-29T11:42:12;0.20;;;0.20;;
70140;SDS011;57508;43.086;0.136;2022-09-29T11:44:56;0.10;;;0.10;;
70140;SDS011;57508;43.086;0.136;2022-09-29T11:47:26;0.20;;;0.20;;
70140;SDS011;57508;43.086;0.136;2022-09-29T11:53:12;0.20;;;0.20;;
70140;SDS011;57508;43.086;0.136;2022-09-29T12:01:29;0.10;;;0.10;;
70140;SDS011;57508;43.086;0.136;2022-09-29T12:19:57;0.10;;;0.10;;
70140;SDS011;57508;43.086;0.136;2022-09-29T12:22:27;0.10;;;0.10;;
70140;SDS011;57508;43.086;0.136;2022-09-29T12:24:54;0.10;;;0.10;;
70140;SDS011;57508;43.086;0.136;2022-09-29T12:27:31;0.20;;;0.20;;
70140;SDS011;57508;43.086;0.136;2022-09-29T12:43:31;0.10;;;0.10;;
70140;SDS011;57508;43.086;0.136;2022-09-29T12:47:06;0.88;;;0.60;;
70140;SDS011;57508;43.086;0.136;2022-09-29T12:49:29;0.20;;;0.20;;
70140;SDS011;57508;43.086;0.136;2022-09-29T12:52:01;0.25;;;0.25;;
70140;SDS011;57508;43.086;0.136;2022-09-29T12:54:34;0.20;;;0.20;;
70140;SDS011;57508;43.086;0.136;2022-09-29T12:57:14;0.20;;;0.20;;
70140;SDS011;57508;43.086;0.136;2022-09-29T13:05:10;0.20;;;0.20;;
70140;SDS011;57508;43.086;0.136;2022-09-29T13:15:49;0.30;;;0.30;;
70140;SDS011;57508;43.086;0.136;2022-09-29T13:18:26;0.20;;;0.20;;
70140;SDS011;57508;43.086;0.136;2022-09-29T13:23:57;0.20;;;0.20;;
70140;SDS011;57508;43.086;0.136;2022-09-29T13:29:21;0.20;;;0.20;;
70140;SDS011;57508;43.086;0.136;2022-09-29T13:31:50;0.40;;;0.20;;
70140;SDS011;57508;43.086;0.136;2022-09-29T13:34:21;0.20;;;0.20;;
70140;SDS011;57508;43.086;0.136;2022-09-29T13:36:53;0.32;;;0.30;;
70140;SDS011;57508;43.086;0.136;2022-09-29T13:39:31;0.20;;;0.20;;
70140;SDS011;57508;43.086;0.136;2022-09-29T13:41:57;0.20;;;0.20;;
70140;SDS011;57508;43.086;0.136;2022-09-29T13:47:44;0.20;;;0.20;;
70140;SDS011;57508;43.086;0.136;2022-09-29T14:07:05;0.10;;;0.10;;
70140;SDS011;57508;43.086;0.136;2022-09-29T14:09:33;0.20;;;0.20;;
70140;SDS011;57508;43.086;0.136;2022-09-29T14:12:09;0.20;;;0.20;;
70140;SDS011;57508;43.086;0.136;2022-09-29T14:14:43;0.20;;;0.20;;
70140;SDS011;57508;43.086;0.136;2022-09-29T14:20:07;0.63;;;0.32;;
70140;SDS011;57508;43.086;0.136;2022-09-29T14:27:39;0.30;;;0.30;;
70140;SDS011;57508;43.086;0.136;2022-09-29T14:32:41;0.30;;;0.30;;
70140;SDS011;57508;43.086;0.136;2022-09-29T14:35:23;0.30;;;0.30;;
70140;SDS011;57508;43.086;0.136;2022-09-29T14:43:20;0.30;;;0.30;;
70140;SDS011;57508;43.086;0.136;2022-09-29T14:52:08;0.30;;;0.30;;
70140;SDS011;57508;43.086;0.136;2022-09-29T14:55:00;0.30;;;0.30;;
70140;SDS011;57508;43.086;0.136;2022-09-29T15:00:20;0.30;;;0.30;;
70140;SDS011;57508;43.086;0.136;2022-09-29T15:02:53;0.30;;;0.30;;
70140;SDS011;57508;43.086;0.136;2022-09-29T15:05:28;0.30;;;0.30;;
70140;SDS011;57508;43.086;0.136;2022-09-29T15:07:58;0.30;;;0.30;;
70140;SDS011;57508;43.086;0.136;2022-09-29T15:10:38;0.40;;;0.40;;
70140;SDS011;57508;43.086;0.136;2022-09-29T15:13:21;0.47;;;0.47;;
70140;SDS011;57508;43.086;0.136;2022-09-29T15:16:03;0.45;;;0.45;;
70140;SDS011;57508;43.086;0.136;2022-09-29T15:18:42;0.40;;;0.40;;
70140;SDS011;57508;43.086;0.136;2022-09-29T15:21:39;0.30;;;0.30;;
70140;SDS011;57508;43.086;0.136;2022-09-29T15:26:44;0.30;;;0.30;;
70140;SDS011;57508;43.086;0.136;2022-09-29T15:29:12;0.30;;;0.30;;
70140;SDS011;57508;43.086;0.136;2022-09-29T15:31:42;0.40;;;0.40;;
70140;SDS011;57508;43.086;0.136;2022-09-29T15:34:14;0.30;;;0.30;;
70140;SDS011;57508;43.086;0.136;2022-09-29T15:36:45;0.40;;;0.40;;
70140;SDS011;57508;43.086;0.136;2022-09-29T15:44:58;0.40;;;0.40;;
70140;SDS011;57508;43.086;0.136;2022-09-29T15:47:44;0.40;;;0.40;;
70140;SDS011;57508;43.086;0.136;2022-09-29T15:50:17;0.50;;;0.50;;
70140;SDS011;57508;43.086;0.136;2022-09-29T15:52:44;0.40;;;0.40;;
70140;SDS011;57508;43.086;0.136;2022-09-29T15:55:14;0.40;;;0.40;;
70140;SDS011;57508;43.086;0.136;2022-09-29T15:57:48;0.50;;;0.50;;
70140;SDS011;57508;43.086;0.136;2022-09-29T16:02:44;2.13;;;1.27;;
70140;SDS011;57508;43.086;0.136;2022-09-29T16:05:36;0.60;;;0.60;;
70140;SDS011;57508;43.086;0.136;2022-09-29T16:11:06;1.90;;;1.17;;
70140;SDS011;57508;43.086;0.136;2022-09-29T16:13:39;1.60;;;0.80;;
70140;SDS011;57508;43.086;0.136;2022-09-29T16:16:09;0.70;;;0.70;;
70140;SDS011;57508;43.086;0.136;2022-09-29T16:18:37;2.42;;;1.48;;
70140;SDS011;57508;43.086;0.136;2022-09-29T16:21:17;1.20;;;0.98;;
70140;SDS011;57508;43.086;0.136;2022-09-29T16:31:37;2.72;;;0.63;;
70140;SDS011;57508;43.086;0.136;2022-09-29T16:34:19;1.48;;;1.08;;
70140;SDS011;57508;43.086;0.136;2022-09-29T16:39:18;0.77;;;0.77;;
70140;SDS011;57508;43.086;0.136;2022-09-29T16:41:52;0.70;;;0.70;;
70140;SDS011;57508;43.086;0.136;2022-09-29T16:44:24;1.25;;;0.95;;
70140;SDS011;57508;43.086;0.136;2022-09-29T16:46:54;0.55;;;0.55;;
70140;SDS011;57508;43.086;0.136;2022-09-29T16:49:23;0.50;;;0.50;;
70140;SDS011;57508;43.086;0.136;2022-09-29T16:51:52;0.65;;;0.65;;
70140;SDS011;57508;43.086;0.136;2022-09-29T16:54:24;0.55;;;0.55;;
70140;SDS011;57508;43.086;0.136;2022-09-29T16:57:38;0.90;;;0.82;;
70140;SDS011;57508;43.086;0.136;2022-09-29T16:59:45;0.68;;;0.68;;
70140;SDS011;57508;43.086;0.136;2022-09-29T17:02:14;0.80;;;0.80;;
70140;SDS011;57508;43.086;0.136;2022-09-29T17:04:39;0.50;;;0.50;;
70140;SDS011;57508;43.086;0.136;2022-09-29T17:07:05;0.55;;;0.55;;
70140;SDS011;57508;43.086;0.136;2022-09-29T17:12:07;0.60;;;0.60;;
70140;SDS011;57508;43.086;0.136;2022-09-29T17:14:38;0.70;;;0.70;;
70140;SDS011;57508;43.086;0.136;2022-09-29T17:17:03;0.60;;;0.60;;
70140;SDS011;57508;43.086;0.136;2022-09-29T17:19:28;0.50;;;0.50;;
70140;SDS011;57508;43.086;0.136;2022-09-29T17:21:54;0.50;;;0.50;;
70140;SDS011;57508;43.086;0.136;2022-09-29T17:24:20;0.60;;;0.60;;
70140;SDS011;57508;43.086;0.136;2022-09-29T17:26:45;0.50;;;0.50;;
70140;SDS011;57508;43.086;0.136;2022-09-29T17:29:30;0.85;;;0.80;;
70140;SDS011;57508;43.086;0.136;2022-09-29T17:31:56;0.95;;;0.95;;
70140;SDS011;57508;43.086;0.136;2022-09-29T17:34:22;2.30;;;1.50;;
70140;SDS011;57508;43.086;0.136;2022-09-29T17:36:54;0.60;;;0.60;;
70140;SDS011;57508;43.086;0.136;2022-09-29T17:39:21;0.93;;;0.80;;
70140;SDS011;57508;43.086;0.136;2022-09-29T17:41:47;0.60;;;0.60;;
70140;SDS011;57508;43.086;0.136;2022-09-29T17:44:13;0.70;;;0.70;;
70140;SDS011;57508;43.086;0.136;2022-09-29T17:46:39;0.50;;;0.50;;
70140;SDS011;57508;43.086;0.136;2022-09-29T17:49:07;0.70;;;0.70;;
70140;SDS011;57508;43.086;0.136;2022-09-29T17:51:37;0.60;;;0.60;;
70140;SDS011;57508;43.086;0.136;2022-09-29T17:54:02;0.75;;;0.75;;
70140;SDS011;57508;43.086;0.136;2022-09-29T17:56:28;1.38;;;0.80;;
70140;SDS011;57508;43.086;0.136;2022-09-29T17:59:01;0.80;;;0.67;;
70140;SDS011;57508;43.086;0.136;2022-09-29T18:01:29;0.60;;;0.60;;
70140;SDS011;57508;43.086;0.136;2022-09-29T18:03:58;0.80;;;0.70;;
70140;SDS011;57508;43.086;0.136;2022-09-29T18:06:25;1.00;;;0.90;;
70140;SDS011;57508;43.086;0.136;2022-09-29T18:08:54;0.60;;;0.60;;
70140;SDS011;57508;43.086;0.136;2022-09-29T18:11:22;0.70;;;0.70;;
70140;SDS011;57508;43.086;0.136;2022-09-29T18:13:49;0.73;;;0.73;;
70140;SDS011;57508;43.086;0.136;2022-09-29T18:16:15;0.60;;;0.60;;
70140;SDS011;57508;43.086;0.136;2022-09-29T18:18:42;0.60;;;0.60;;
70140;SDS011;57508;43.086;0.136;2022-09-29T18:21:09;0.98;;;0.90;;
70140;SDS011;57508;43.086;0.136;2022-09-29T18:23:35;1.13;;;1.02;;
70140;SDS011;57508;43.086;0.136;2022-09-29T18:26:01;0.70;;;0.70;;
70140;SDS011;57508;43.086;0.136;2022-09-29T18:28:27;0.95;;;0.95;;
70140;SDS011;57508;43.086;0.136;2022-09-29T18:30:54;0.60;;;0.60;;
70140;SDS011;57508;43.086;0.136;2022-09-29T18:33:29;0.70;;;0.70;;
70140;SDS011;57508;43.086;0.136;2022-09-29T18:35:55;1.25;;;0.80;;
70140;SDS011;57508;43.086;0.136;2022-09-29T18:38:20;1.23;;;1.13;;
70140;SDS011;57508;43.086;0.136;2022-09-29T18:40:46;0.70;;;0.70;;
70140;SDS011;57508;43.086;0.136;2022-09-29T18:43:12;1.50;;;1.00;;
70140;SDS011;57508;43.086;0.136;2022-09-29T18:45:39;0.95;;;0.93;;